Commodore Goodwill — C6NU8 — position and weather

sailwx.info

Track history (hours):
 
Tides and Currents Weather Stations Pressure Air Temp Water Temp Dewpoint Dewpoint Depression Visibility Wind Speed Wind Dir Waves Ship Positions

Commodore Goodwill

Operator: Condor Marine Services

Last reported at 2017-Apr-27 20:19 UTC. Time now 2017-Apr-28 02:24 UTC.
Position N 50°36' W 001°08'.

Length 126 m; draft 5.2 m.

Type: Ship (hazmat cat C). MMSI: 309536000.

Date/timePositionNaut miles runAvg speedWind from/ knotsBaromVisibWave heightAir tempDewpointWater temp
2017-Apr-27 20:19N 50°36' W 001°08'514.2
2017-Apr-27 19:58N 50°40' W 001°04'613.5
2017-Apr-27 19:30N 50°46' W 001°06'2 4.7
2017-Apr-27 19:01N 50°49' W 001°06'0 0.0
2017-Apr-27 18:30N 50°49' W 001°06'0 0.0
2017-Apr-27 18:01N 50°49' W 001°06'0 0.0
2017-Apr-27 17:30N 50°49' W 001°06'0 0.0
2017-Apr-27 17:01N 50°49' W 001°06'0 0.0
2017-Apr-27 16:30N 50°49' W 001°06'0 0.0
2017-Apr-27 16:00N 50°49' W 001°06'0 0.0
2017-Apr-27 15:30N 50°49' W 001°06'1 2.2
2017-Apr-27 15:01N 50°48' W 001°07'1312.7
2017-Apr-27 13:57N 50°35' W 001°10'6 0.3
2017-Apr-26 19:43N 50°39' W 001°02'315.0
2017-Apr-26 19:30N 50°42' W 001°01'714.8
2017-Apr-26 19:00N 50°48' W 001°07'1 2.2
2017-Apr-26 18:31N 50°49' W 001°06'0 0.0
2017-Apr-26 18:00N 50°49' W 001°06'0 0.0
2017-Apr-26 17:30N 50°49' W 001°06'0 0.0
2017-Apr-26 17:00N 50°49' W 001°06'0 0.0
2017-Apr-26 16:31N 50°49' W 001°06'0 0.0
2017-Apr-26 16:01N 50°49' W 001°06'0 0.0
2017-Apr-26 15:31N 50°49' W 001°06'2 3.0
2017-Apr-26 15:01N 50°47' W 001°07'713.7
2017-Apr-26 14:31N 50°42' W 001°01'3 0.1
2017-Apr-25 19:40N 50°39' W 001°02'215.2
2017-Apr-25 19:30N 50°41' W 001°00'713.3
2017-Apr-25 19:00N 50°47' W 001°06'2 3.6
2017-Apr-25 18:30N 50°49' W 001°06'0 0.0
2017-Apr-25 18:00N 50°49' W 001°06'0 0.0
2017-Apr-25 17:30N 50°49' W 001°06'0 0.0
2017-Apr-25 17:00N 50°49' W 001°06'0 0.0
2017-Apr-25 16:30N 50°49' W 001°06'0 0.0
2017-Apr-25 16:00N 50°49' W 001°06'0 0.0
2017-Apr-25 15:30N 50°49' W 001°06'2 3.4
2017-Apr-25 15:00N 50°47' W 001°06'713.4
2017-Apr-25 14:31N 50°42' W 001°00'9 0.5
2017-Apr-24 19:39N 50°35' W 001°09'213.5
2017-Apr-24 19:30N 50°36' W 001°08'714.0
2017-Apr-24 19:00N 50°43' W 001°03'613.0
2017-Apr-24 18:31N 50°48' W 001°07'1 1.6
2017-Apr-24 18:00N 50°49' W 001°06'0 0.0
2017-Apr-24 17:30N 50°49' W 001°06'0 0.0
2017-Apr-24 17:00N 50°49' W 001°06'0 0.0
2017-Apr-24 16:30N 50°49' W 001°06'0 0.0
2017-Apr-24 16:00N 50°49' W 001°06'0 0.0
2017-Apr-24 15:30N 50°49' W 001°06'1 2.1
2017-Apr-24 15:00N 50°48' W 001°07'713.5
2017-Apr-24 14:31N 50°42' W 001°01'10310.5
2017-Apr-24 04:43N 49°10' W 002°10'23 8.2
2017-Apr-24 01:58N 49°27' W 002°32'7 9.8
2017-Apr-24 01:12N 49°29' W 002°20'8112.0
2017-Apr-23 18:29N 50°35' W 001°09'712.2
2017-Apr-23 17:57N 50°41' W 001°03'714.7
2017-Apr-23 17:31N 50°47' W 001°06'2 3.5
2017-Apr-23 17:00N 50°49' W 001°06'0 0.0
2017-Apr-23 16:30N 50°49' W 001°06'0 0.0
2017-Apr-23 16:00N 50°49' W 001°06'0 0.0
2017-Apr-23 15:30N 50°49' W 001°06'0 0.0
2017-Apr-23 15:00N 50°49' W 001°06'0 0.0
2017-Apr-23 14:00N 50°49' W 001°06'0 0.0
2017-Apr-23 13:30N 50°49' W 001°06'0 0.0
2017-Apr-23 13:00N 50°49' W 001°06'0 0.0
2017-Apr-23 12:30N 50°49' W 001°06'0 0.0
2017-Apr-23 12:00N 50°49' W 001°06'0 0.0
2017-Apr-23 11:30N 50°49' W 001°06'0 0.0
2017-Apr-23 11:00N 50°49' W 001°06'0 0.0
2017-Apr-23 10:30N 50°49' W 001°06'0 0.0
2017-Apr-23 10:00N 50°49' W 001°06'0 0.0
2017-Apr-23 09:30N 50°49' W 001°06'0 0.0
2017-Apr-23 09:00N 50°49' W 001°06'0 0.0
2017-Apr-23 08:30N 50°49' W 001°06'0 0.0
2017-Apr-23 08:01N 50°49' W 001°06'0 0.0
2017-Apr-23 07:30N 50°49' W 001°06'0 0.0
2017-Apr-23 07:00N 50°49' W 001°06'0 0.0
2017-Apr-23 06:30N 50°49' W 001°06'1 2.0
2017-Apr-23 06:00N 50°48' W 001°07'714.2
2017-Apr-23 05:31N 50°41' W 001°03'13 0.4
2017-Apr-21 19:59N 50°30' W 001°14'917.6
2017-Apr-21 19:28N 50°38' W 001°06'714.2
2017-Apr-21 19:01N 50°45' W 001°05'4 8.5
2017-Apr-21 18:31N 50°49' W 001°06'0 0.5
2017-Apr-21 18:01N 50°49' W 001°06'0 0.0
2017-Apr-21 17:31N 50°49' W 001°06'0 0.0
2017-Apr-21 17:01N 50°49' W 001°06'0 0.0
2017-Apr-21 16:31N 50°49' W 001°06'0 0.0
2017-Apr-21 16:01N 50°49' W 001°06'0 0.0
2017-Apr-21 15:30N 50°49' W 001°06'1 2.6
2017-Apr-21 15:00N 50°48' W 001°07'713.6
2017-Apr-21 14:31N 50°41' W 001°03'4216.8
2017-Apr-21 11:59N 50°06' W 001°38'714.4
2017-Apr-21 11:29N 49°60' W 001°45'53 7.9
2017-Apr-21 04:51N 49°10' W 002°09'1415.0
2017-Apr-21 03:56N 49°19' W 002°25'8910.9
2017-Apr-20 19:47N 50°34' W 001°10'515.8
2017-Apr-20 19:30N 50°38' W 001°06'714.3
2017-Apr-20 19:00N 50°45' W 001°05'4 8.0
2017-Apr-20 18:30N 50°49' W 001°06'0 0.0
2017-Apr-20 18:00N 50°49' W 001°06'0 0.0
2017-Apr-20 17:30N 50°49' W 001°06'0 0.0
2017-Apr-20 17:01N 50°49' W 001°06'0 0.0
2017-Apr-20 16:31N 50°49' W 001°06'0 0.0
2017-Apr-20 16:00N 50°49' W 001°06'0 0.0
2017-Apr-20 15:31N 50°49' W 001°06'1 2.0
2017-Apr-20 15:00N 50°48' W 001°07'713.8
2017-Apr-20 14:30N 50°42' W 001°03'8 0.4
2017-Apr-19 19:44N 50°35' W 001°10'717.6
2017-Apr-19 19:20N 50°41' W 001°03'515.4
2017-Apr-19 19:00N 50°45' W 001°05'3 6.6
2017-Apr-19 18:30N 50°49' W 001°06'0 0.0
2017-Apr-19 18:00N 50°49' W 001°06'0 0.0
2017-Apr-19 17:30N 50°49' W 001°06'0 0.0
2017-Apr-19 17:00N 50°49' W 001°06'0 0.0
2017-Apr-19 16:31N 50°49' W 001°06'0 0.0
2017-Apr-19 16:01N 50°49' W 001°06'0 0.0
2017-Apr-19 15:30N 50°49' W 001°06'1 2.2
2017-Apr-19 15:01N 50°48' W 001°07'713.9
2017-Apr-19 14:30N 50°41' W 001°03'14 0.7
2017-Apr-18 20:00N 50°30' W 001°15'816.8
2017-Apr-18 19:30N 50°37' W 001°07'815.2
2017-Apr-18 19:01N 50°44' W 001°04'5 9.2
2017-Apr-18 18:31N 50°49' W 001°06'0 0.0
2017-Apr-18 18:00N 50°49' W 001°06'0 0.0
2017-Apr-18 17:31N 50°49' W 001°06'0 0.0
2017-Apr-18 17:01N 50°49' W 001°06'0 0.0
2017-Apr-18 16:31N 50°49' W 001°06'0 0.0
2017-Apr-18 16:00N 50°49' W 001°06'0 0.4
2017-Apr-18 15:31N 50°49' W 001°06'2 3.2
2017-Apr-18 15:00N 50°47' W 001°06'714.1
2017-Apr-18 14:30N 50°40' W 001°04'  
Track history (hours):
 
Tides and Currents Weather Stations Pressure Air Temp Water Temp Dewpoint Dewpoint Depression Visibility Wind Speed Wind Dir Waves Ship Positions

Commodore Goodwill

Operator: Condor Marine Services

Last reported at 2017-Apr-27 20:19 UTC. Time now 2017-Apr-28 02:24 UTC.
Position N 50°36' W 001°08'.

Length 126 m; draft 5.2 m.

Type: Ship (hazmat cat C). MMSI: 309536000.

Date/timePositionNaut miles runAvg speedWind from/ knotsBaromVisibWave heightAir tempDewpointWater temp
2017-Apr-27 20:19N 50°36' W 001°08'514.2
2017-Apr-27 19:58N 50°40' W 001°04'613.5
2017-Apr-27 19:30N 50°46' W 001°06'2 4.7
2017-Apr-27 19:01N 50°49' W 001°06'0 0.0
2017-Apr-27 18:30N 50°49' W 001°06'0 0.0
2017-Apr-27 18:01N 50°49' W 001°06'0 0.0
2017-Apr-27 17:30N 50°49' W 001°06'0 0.0
2017-Apr-27 17:01N 50°49' W 001°06'0 0.0
2017-Apr-27 16:30N 50°49' W 001°06'0 0.0
2017-Apr-27 16:00N 50°49' W 001°06'0 0.0
2017-Apr-27 15:30N 50°49' W 001°06'1 2.2
2017-Apr-27 15:01N 50°48' W 001°07'1312.7
2017-Apr-27 13:57N 50°35' W 001°10'6 0.3
2017-Apr-26 19:43N 50°39' W 001°02'315.0
2017-Apr-26 19:30N 50°42' W 001°01'714.8
2017-Apr-26 19:00N 50°48' W 001°07'1 2.2
2017-Apr-26 18:31N 50°49' W 001°06'0 0.0
2017-Apr-26 18:00N 50°49' W 001°06'0 0.0
2017-Apr-26 17:30N 50°49' W 001°06'0 0.0
2017-Apr-26 17:00N 50°49' W 001°06'0 0.0
2017-Apr-26 16:31N 50°49' W 001°06'0 0.0
2017-Apr-26 16:01N 50°49' W 001°06'0 0.0
2017-Apr-26 15:31N 50°49' W 001°06'2 3.0
2017-Apr-26 15:01N 50°47' W 001°07'713.7
2017-Apr-26 14:31N 50°42' W 001°01'3 0.1
2017-Apr-25 19:40N 50°39' W 001°02'215.2
2017-Apr-25 19:30N 50°41' W 001°00'713.3
2017-Apr-25 19:00N 50°47' W 001°06'2 3.6
2017-Apr-25 18:30N 50°49' W 001°06'0 0.0
2017-Apr-25 18:00N 50°49' W 001°06'0 0.0
2017-Apr-25 17:30N 50°49' W 001°06'0 0.0
2017-Apr-25 17:00N 50°49' W 001°06'0 0.0
2017-Apr-25 16:30N 50°49' W 001°06'0 0.0
2017-Apr-25 16:00N 50°49' W 001°06'0 0.0
2017-Apr-25 15:30N 50°49' W 001°06'2 3.4
2017-Apr-25 15:00N 50°47' W 001°06'713.4
2017-Apr-25 14:31N 50°42' W 001°00'9 0.5
2017-Apr-24 19:39N 50°35' W 001°09'213.5
2017-Apr-24 19:30N 50°36' W 001°08'714.0
2017-Apr-24 19:00N 50°43' W 001°03'613.0
2017-Apr-24 18:31N 50°48' W 001°07'1 1.6
2017-Apr-24 18:00N 50°49' W 001°06'0 0.0
2017-Apr-24 17:30N 50°49' W 001°06'0 0.0
2017-Apr-24 17:00N 50°49' W 001°06'0 0.0
2017-Apr-24 16:30N 50°49' W 001°06'0 0.0
2017-Apr-24 16:00N 50°49' W 001°06'0 0.0
2017-Apr-24 15:30N 50°49' W 001°06'1 2.1
2017-Apr-24 15:00N 50°48' W 001°07'713.5
2017-Apr-24 14:31N 50°42' W 001°01'10310.5
2017-Apr-24 04:43N 49°10' W 002°10'23 8.2
2017-Apr-24 01:58N 49°27' W 002°32'7 9.8
2017-Apr-24 01:12N 49°29' W 002°20'8112.0
2017-Apr-23 18:29N 50°35' W 001°09'712.2
2017-Apr-23 17:57N 50°41' W 001°03'714.7
2017-Apr-23 17:31N 50°47' W 001°06'2 3.5
2017-Apr-23 17:00N 50°49' W 001°06'0 0.0
2017-Apr-23 16:30N 50°49' W 001°06'0 0.0
2017-Apr-23 16:00N 50°49' W 001°06'0 0.0
2017-Apr-23 15:30N 50°49' W 001°06'0 0.0
2017-Apr-23 15:00N 50°49' W 001°06'0 0.0
2017-Apr-23 14:00N 50°49' W 001°06'0 0.0
2017-Apr-23 13:30N 50°49' W 001°06'0 0.0
2017-Apr-23 13:00N 50°49' W 001°06'0 0.0
2017-Apr-23 12:30N 50°49' W 001°06'0 0.0
2017-Apr-23 12:00N 50°49' W 001°06'0 0.0
2017-Apr-23 11:30N 50°49' W 001°06'0 0.0
2017-Apr-23 11:00N 50°49' W 001°06'0 0.0
2017-Apr-23 10:30N 50°49' W 001°06'0 0.0
2017-Apr-23 10:00N 50°49' W 001°06'0 0.0
2017-Apr-23 09:30N 50°49' W 001°06'0 0.0
2017-Apr-23 09:00N 50°49' W 001°06'0 0.0
2017-Apr-23 08:30N 50°49' W 001°06'0 0.0
2017-Apr-23 08:01N 50°49' W 001°06'0 0.0
2017-Apr-23 07:30N 50°49' W 001°06'0 0.0
2017-Apr-23 07:00N 50°49' W 001°06'0 0.0
2017-Apr-23 06:30N 50°49' W 001°06'1 2.0
2017-Apr-23 06:00N 50°48' W 001°07'714.2
2017-Apr-23 05:31N 50°41' W 001°03'13 0.4
2017-Apr-21 19:59N 50°30' W 001°14'917.6
2017-Apr-21 19:28N 50°38' W 001°06'714.2
2017-Apr-21 19:01N 50°45' W 001°05'4 8.5
2017-Apr-21 18:31N 50°49' W 001°06'0 0.5
2017-Apr-21 18:01N 50°49' W 001°06'0 0.0
2017-Apr-21 17:31N 50°49' W 001°06'0 0.0
2017-Apr-21 17:01N 50°49' W 001°06'0 0.0
2017-Apr-21 16:31N 50°49' W 001°06'0 0.0
2017-Apr-21 16:01N 50°49' W 001°06'0 0.0
2017-Apr-21 15:30N 50°49' W 001°06'1 2.6
2017-Apr-21 15:00N 50°48' W 001°07'713.6
2017-Apr-21 14:31N 50°41' W 001°03'4216.8
2017-Apr-21 11:59N 50°06' W 001°38'714.4
2017-Apr-21 11:29N 49°60' W 001°45'53 7.9
2017-Apr-21 04:51N 49°10' W 002°09'1415.0
2017-Apr-21 03:56N 49°19' W 002°25'8910.9
2017-Apr-20 19:47N 50°34' W 001°10'515.8
2017-Apr-20 19:30N 50°38' W 001°06'714.3
2017-Apr-20 19:00N 50°45' W 001°05'4 8.0
2017-Apr-20 18:30N 50°49' W 001°06'0 0.0
2017-Apr-20 18:00N 50°49' W 001°06'0 0.0
2017-Apr-20 17:30N 50°49' W 001°06'0 0.0
2017-Apr-20 17:01N 50°49' W 001°06'0 0.0
2017-Apr-20 16:31N 50°49' W 001°06'0 0.0
2017-Apr-20 16:00N 50°49' W 001°06'0 0.0
2017-Apr-20 15:31N 50°49' W 001°06'1 2.0
2017-Apr-20 15:00N 50°48' W 001°07'713.8
2017-Apr-20 14:30N 50°42' W 001°03'8 0.4
2017-Apr-19 19:44N 50°35' W 001°10'717.6
2017-Apr-19 19:20N 50°41' W 001°03'515.4
2017-Apr-19 19:00N 50°45' W 001°05'3 6.6
2017-Apr-19 18:30N 50°49' W 001°06'0 0.0
2017-Apr-19 18:00N 50°49' W 001°06'0 0.0
2017-Apr-19 17:30N 50°49' W 001°06'0 0.0
2017-Apr-19 17:00N 50°49' W 001°06'0 0.0
2017-Apr-19 16:31N 50°49' W 001°06'0 0.0
2017-Apr-19 16:01N 50°49' W 001°06'0 0.0
2017-Apr-19 15:30N 50°49' W 001°06'1 2.2
2017-Apr-19 15:01N 50°48' W 001°07'713.9
2017-Apr-19 14:30N 50°41' W 001°03'14 0.7
2017-Apr-18 20:00N 50°30' W 001°15'816.8
2017-Apr-18 19:30N 50°37' W 001°07'815.2
2017-Apr-18 19:01N 50°44' W 001°04'5 9.2
2017-Apr-18 18:31N 50°49' W 001°06'0 0.0
2017-Apr-18 18:00N 50°49' W 001°06'0 0.0
2017-Apr-18 17:31N 50°49' W 001°06'0 0.0
2017-Apr-18 17:01N 50°49' W 001°06'0 0.0
2017-Apr-18 16:31N 50°49' W 001°06'0 0.0
2017-Apr-18 16:00N 50°49' W 001°06'0 0.4
2017-Apr-18 15:31N 50°49' W 001°06'2 3.2
2017-Apr-18 15:00N 50°47' W 001°06'714.1
2017-Apr-18 14:30N 50°40' W 001°04'  

Dump ship's entire track history